createdAt,value
2018-01-29T00:00:31.596Z,1019.58
2018-01-29T00:01:31.611Z,1019.55
2018-01-29T00:02:31.651Z,1019.53
2018-01-29T00:03:31.671Z,1019.49
2018-01-29T00:04:31.684Z,1019.48
2018-01-29T00:05:31.724Z,1019.53
2018-01-29T00:06:31.733Z,1019.51
2018-01-29T00:07:31.757Z,1019.50
2018-01-29T00:08:31.782Z,1019.45
2018-01-29T00:09:31.815Z,1019.52
2018-01-29T00:10:31.835Z,1019.47
2018-01-29T00:11:31.860Z,1019.44
2018-01-29T00:12:31.879Z,1019.47
2018-01-29T00:13:31.911Z,1019.47
2018-01-29T00:14:31.929Z,1019.45
2018-01-29T00:15:31.964Z,1019.47
2018-01-29T00:16:31.982Z,1019.48
2018-01-29T00:17:32.009Z,1019.46
2018-01-29T00:18:32.027Z,1019.46
2018-01-29T00:19:32.043Z,1019.49
2018-01-29T00:20:32.074Z,1019.41
2018-01-29T00:21:32.140Z,1019.39
2018-01-29T00:22:32.120Z,1019.45
2018-01-29T00:23:32.149Z,1019.41
2018-01-29T00:24:32.170Z,1019.47
2018-01-29T00:25:32.192Z,1019.36
2018-01-29T00:26:32.220Z,1019.36
2018-01-29T00:27:32.258Z,1019.34
2018-01-29T00:28:32.272Z,1019.27
2018-01-29T00:29:32.297Z,1019.31
2018-01-29T00:30:32.314Z,1019.27
2018-01-29T00:31:32.337Z,1019.35
2018-01-29T00:32:32.366Z,1019.37
2018-01-29T00:33:32.396Z,1019.28
2018-01-29T00:34:32.410Z,1019.31
2018-01-29T00:35:32.441Z,1019.37
2018-01-29T00:36:32.469Z,1019.33
2018-01-29T00:37:32.492Z,1019.39
2018-01-29T00:38:32.517Z,1019.37
2018-01-29T00:39:32.544Z,1019.39
2018-01-29T00:40:32.596Z,1019.39
2018-01-29T00:41:32.586Z,1019.34
2018-01-29T00:42:32.621Z,1019.36
2018-01-29T00:43:32.628Z,1019.36
2018-01-29T00:44:32.653Z,1019.37
2018-01-29T00:45:32.687Z,1019.35
2018-01-29T00:46:32.703Z,1019.39
2018-01-29T00:47:32.724Z,1019.42
2018-01-29T00:48:32.751Z,1019.36
2018-01-29T00:49:32.833Z,1019.37
2018-01-29T00:50:32.808Z,1019.33
2018-01-29T00:51:32.825Z,1019.38
2018-01-29T00:52:32.854Z,1019.36
2018-01-29T00:53:32.874Z,1019.38
2018-01-29T00:54:32.904Z,1019.31
2018-01-29T00:55:32.922Z,1019.31
2018-01-29T00:56:32.955Z,1019.34
2018-01-29T00:57:32.974Z,1019.32
2018-01-29T00:58:32.992Z,1019.38
2018-01-29T00:59:33.015Z,1019.38
2018-01-29T01:00:33.042Z,1019.37
2018-01-29T01:01:33.065Z,1019.45
2018-01-29T01:02:33.090Z,1019.39
2018-01-29T01:03:33.135Z,1019.43
2018-01-29T01:04:33.144Z,1019.44
2018-01-29T01:05:33.166Z,1019.44
2018-01-29T01:06:33.183Z,1019.45
2018-01-29T01:07:33.218Z,1019.45
2018-01-29T01:08:33.279Z,1019.46
2018-01-29T01:09:33.267Z,1019.42
2018-01-29T01:10:33.288Z,1019.49
2018-01-29T01:11:33.308Z,1019.45
2018-01-29T01:12:33.333Z,1019.48
2018-01-29T01:13:33.356Z,1019.47
2018-01-29T01:14:33.384Z,1019.42
2018-01-29T01:15:33.406Z,1019.51
2018-01-29T01:16:33.434Z,1019.39
2018-01-29T01:17:33.452Z,1019.51
2018-01-29T01:18:33.489Z,1019.48
2018-01-29T01:19:33.507Z,1019.50
2018-01-29T01:20:33.529Z,1019.50
2018-01-29T01:21:33.572Z,1019.44
2018-01-29T01:22:33.583Z,1019.44
2018-01-29T01:23:33.605Z,1019.48
2018-01-29T01:24:33.629Z,1019.42
2018-01-29T01:25:33.648Z,1019.43
2018-01-29T01:26:33.674Z,1019.41
2018-01-29T01:27:33.699Z,1019.40
2018-01-29T01:28:33.718Z,1019.39
2018-01-29T01:29:33.747Z,1019.37
2018-01-29T01:30:33.779Z,1019.35
2018-01-29T01:31:33.795Z,1019.38
2018-01-29T01:32:33.818Z,1019.45
2018-01-29T01:33:33.845Z,1019.37
2018-01-29T01:34:33.878Z,1019.44
2018-01-29T01:35:33.892Z,1019.39
2018-01-29T01:36:33.924Z,1019.39
2018-01-29T01:37:33.955Z,1019.43
2018-01-29T01:38:33.964Z,1019.39
2018-01-29T01:39:33.989Z,1019.34
2018-01-29T01:40:34.023Z,1019.38
2018-01-29T01:41:34.034Z,1019.35
2018-01-29T01:42:34.066Z,1019.33
2018-01-29T01:43:34.098Z,1019.40
2018-01-29T01:44:34.118Z,1019.39
2018-01-29T01:45:34.138Z,1019.34
2018-01-29T01:46:34.954Z,1019.34
2018-01-29T01:47:34.184Z,1019.38
2018-01-29T01:48:34.214Z,1019.38
2018-01-29T01:49:34.232Z,1019.36
2018-01-29T01:50:34.254Z,1019.38
2018-01-29T01:51:34.281Z,1019.37
2018-01-29T01:52:34.312Z,1019.38
2018-01-29T01:53:34.330Z,1019.32
2018-01-29T01:54:34.357Z,1019.38
2018-01-29T01:55:34.380Z,1019.36
2018-01-29T01:56:34.402Z,1019.41
2018-01-29T01:57:34.478Z,1019.39
2018-01-29T01:58:34.458Z,1019.35
2018-01-29T01:59:34.496Z,1019.30
2018-01-29T02:00:34.502Z,1019.33
2018-01-29T02:01:34.525Z,1019.28
2018-01-29T02:02:34.563Z,1019.32
2018-01-29T02:03:34.579Z,1019.29
2018-01-29T02:04:34.602Z,1019.27
2018-01-29T02:05:34.624Z,1019.24
2018-01-29T02:06:34.698Z,1019.23
2018-01-29T02:07:34.680Z,1019.22
2018-01-29T02:08:34.705Z,1019.21
2018-01-29T02:09:34.725Z,1019.17
2018-01-29T02:10:34.783Z,1019.14
2018-01-29T02:11:34.772Z,1019.21
2018-01-29T02:12:34.799Z,1019.18
2018-01-29T02:13:34.827Z,1019.22
2018-01-29T02:14:34.857Z,1019.17
2018-01-29T02:15:34.881Z,1019.22
2018-01-29T02:16:34.899Z,1019.21
2018-01-29T02:17:34.917Z,1019.20
2018-01-29T02:18:34.940Z,1019.24
2018-01-29T02:19:34.972Z,1019.15
2018-01-29T02:20:35.003Z,1019.19
2018-01-29T02:21:35.014Z,1019.22
2018-01-29T02:22:35.039Z,1019.16
2018-01-29T02:23:35.078Z,1019.19
2018-01-29T02:24:35.087Z,1019.17
2018-01-29T02:25:35.115Z,1019.09
2018-01-29T02:26:35.142Z,1019.16
2018-01-29T02:27:35.161Z,1019.12
2018-01-29T02:28:35.190Z,1019.14
2018-01-29T02:29:35.220Z,1019.15
2018-01-29T02:30:35.240Z,1019.06
2018-01-29T02:31:35.263Z,1019.01
2018-01-29T02:32:35.287Z,1019.01
2018-01-29T02:33:35.315Z,1018.93
2018-01-29T02:34:35.339Z,1019.00
2018-01-29T02:35:35.367Z,1019.01
2018-01-29T02:36:35.381Z,1018.99
2018-01-29T02:37:35.409Z,1019.03
2018-01-29T02:38:35.428Z,1019.00
2018-01-29T02:39:35.465Z,1019.03
2018-01-29T02:40:35.478Z,1018.98
2018-01-29T02:41:35.513Z,1018.98
2018-01-29T02:42:35.532Z,1018.98
2018-01-29T02:43:35.554Z,1018.95
2018-01-29T02:44:35.599Z,1018.96
2018-01-29T02:45:35.606Z,1018.96
2018-01-29T02:46:35.625Z,1018.90
2018-01-29T02:47:35.658Z,1018.85
2018-01-29T02:48:35.673Z,1018.89
2018-01-29T02:49:35.711Z,1018.90
2018-01-29T02:50:35.747Z,1018.86
2018-01-29T02:51:35.761Z,1018.77
2018-01-29T02:52:35.782Z,1018.82
2018-01-29T02:53:35.808Z,1018.80
2018-01-29T02:54:35.824Z,1018.76
2018-01-29T02:55:35.864Z,1018.76
2018-01-29T02:56:35.875Z,1018.75
2018-01-29T02:57:35.903Z,1018.79
2018-01-29T02:58:35.921Z,1018.75
2018-01-29T02:59:35.953Z,1018.75
2018-01-29T03:00:35.971Z,1018.73
2018-01-29T03:01:36.001Z,1018.77
2018-01-29T03:02:36.073Z,1018.72
2018-01-29T03:03:36.964Z,1018.71
2018-01-29T03:04:36.073Z,1018.68
2018-01-29T03:05:36.181Z,1018.70
2018-01-29T03:06:36.122Z,1018.76
2018-01-29T03:07:36.151Z,1018.72
2018-01-29T03:08:36.164Z,1018.77
2018-01-29T03:09:36.198Z,1018.70
2018-01-29T03:10:36.227Z,1018.68
2018-01-29T03:11:36.242Z,1018.68
2018-01-29T03:12:36.271Z,1018.71
2018-01-29T03:13:36.293Z,1018.74
2018-01-29T03:14:36.320Z,1018.73
2018-01-29T03:15:36.338Z,1018.75
2018-01-29T03:16:36.365Z,1018.73
2018-01-29T03:17:36.386Z,1018.67
2018-01-29T03:18:36.419Z,1018.69
2018-01-29T03:19:36.447Z,1018.64
2018-01-29T03:20:36.463Z,1018.68
2018-01-29T03:21:36.485Z,1018.67
2018-01-29T03:22:36.511Z,1018.64
2018-01-29T03:23:36.538Z,1018.63
2018-01-29T03:24:36.560Z,1018.62
2018-01-29T03:25:36.581Z,1018.60
2018-01-29T03:26:36.606Z,1018.59
2018-01-29T03:27:36.640Z,1018.62
2018-01-29T03:28:36.659Z,1018.51
2018-01-29T03:29:36.685Z,1018.62
2018-01-29T03:30:36.706Z,1018.59
2018-01-29T03:31:36.732Z,1018.62
2018-01-29T03:32:36.768Z,1018.58
2018-01-29T03:33:36.785Z,1018.55
2018-01-29T03:34:36.815Z,1018.59
2018-01-29T03:35:36.827Z,1018.52
2018-01-29T03:36:36.874Z,1018.53
2018-01-29T03:37:36.877Z,1018.57
2018-01-29T03:38:36.911Z,1018.51
2018-01-29T03:39:36.927Z,1018.54
2018-01-29T03:40:36.963Z,1018.45
2018-01-29T03:41:36.976Z,1018.45
2018-01-29T03:42:37.012Z,1018.48
2018-01-29T03:43:37.027Z,1018.53
2018-01-29T03:44:37.057Z,1018.57
2018-01-29T03:45:37.076Z,1018.53
2018-01-29T03:46:37.105Z,1018.43
2018-01-29T03:47:37.123Z,1018.49
2018-01-29T03:48:37.159Z,1018.35
2018-01-29T03:49:37.173Z,1018.49
2018-01-29T03:50:37.207Z,1018.48
2018-01-29T03:51:37.252Z,1018.46
2018-01-29T03:52:37.249Z,1018.42
2018-01-29T03:53:37.272Z,1018.42
2018-01-29T03:54:37.302Z,1018.45
2018-01-29T03:55:37.329Z,1018.39
2018-01-29T03:56:37.352Z,1018.38
2018-01-29T03:57:37.377Z,1018.35
2018-01-29T03:58:37.396Z,1018.35
2018-01-29T03:59:37.440Z,1018.40
2018-01-29T04:00:37.445Z,1018.42
2018-01-29T04:01:37.473Z,1018.49
2018-01-29T04:02:37.499Z,1018.48
2018-01-29T04:03:37.517Z,1018.45
2018-01-29T04:04:37.543Z,1018.39
2018-01-29T04:05:37.580Z,1018.48
2018-01-29T04:06:37.595Z,1018.34
2018-01-29T04:07:37.613Z,1018.22
2018-01-29T04:08:37.639Z,1018.26
2018-01-29T04:09:37.667Z,1018.31
2018-01-29T04:10:37.688Z,1018.32
2018-01-29T04:11:37.728Z,1018.37
2018-01-29T04:12:37.740Z,1018.22
2018-01-29T04:13:37.778Z,1018.28
2018-01-29T04:14:37.790Z,1018.30
2018-01-29T04:15:37.814Z,1018.34
2018-01-29T04:16:37.837Z,1018.34
2018-01-29T04:17:37.871Z,1018.29
2018-01-29T04:18:37.886Z,1018.32
2018-01-29T04:19:37.922Z,1018.29
2018-01-29T04:20:37.938Z,1018.28
2018-01-29T04:21:37.966Z,1018.25
2018-01-29T04:22:38.471Z,1018.21
2018-01-29T04:23:38.020Z,1018.25
2018-01-29T04:24:38.073Z,1018.28
2018-01-29T04:25:38.066Z,1018.29
2018-01-29T04:26:38.092Z,1018.19
2018-01-29T04:27:38.112Z,1018.17
2018-01-29T04:28:38.132Z,1018.21
2018-01-29T04:29:38.170Z,1018.20
2018-01-29T04:30:38.185Z,1018.22
2018-01-29T04:31:38.209Z,1018.11
2018-01-29T04:32:38.246Z,1018.15
2018-01-29T04:33:38.288Z,1018.13
2018-01-29T04:34:38.278Z,1018.13
2018-01-29T04:35:38.309Z,1018.16
2018-01-29T04:36:38.328Z,1018.20
2018-01-29T04:37:38.388Z,1018.12
2018-01-29T04:38:38.399Z,1018.12
2018-01-29T04:39:38.403Z,1018.09
2018-01-29T04:40:38.456Z,1018.12
2018-01-29T04:41:38.457Z,1018.07
2018-01-29T04:42:38.475Z,1018.08
2018-01-29T04:43:38.503Z,1018.06
2018-01-29T04:44:38.523Z,1018.02
2018-01-29T04:45:38.549Z,1018.02
2018-01-29T04:46:38.594Z,1018.02
2018-01-29T04:47:38.604Z,1018.05
2018-01-29T04:48:38.636Z,1017.97
2018-01-29T04:49:38.653Z,1017.95
2018-01-29T04:50:38.679Z,1018.04
2018-01-29T04:51:38.696Z,1018.09
2018-01-29T04:52:38.727Z,1018.05
2018-01-29T04:53:38.753Z,1018.04
2018-01-29T04:54:38.781Z,1018.05
2018-01-29T04:55:38.797Z,1018.07
2018-01-29T04:56:38.824Z,1018.13
2018-01-29T04:57:38.856Z,1018.02
2018-01-29T04:58:38.888Z,1018.03
2018-01-29T04:59:38.896Z,1017.99
2018-01-29T05:00:38.928Z,1018.00
2018-01-29T05:01:38.955Z,1017.96
2018-01-29T05:02:38.979Z,1017.96
2018-01-29T05:03:39.006Z,1018.01
2018-01-29T05:04:39.025Z,1017.89
2018-01-29T05:05:39.047Z,1017.86
2018-01-29T05:06:39.082Z,1017.89
2018-01-29T05:07:39.101Z,1017.83
2018-01-29T05:08:39.122Z,1017.82
2018-01-29T05:09:39.143Z,1017.83
2018-01-29T05:10:39.170Z,1017.82
2018-01-29T05:11:39.192Z,1017.83
2018-01-29T05:12:39.270Z,1017.82
2018-01-29T05:13:39.247Z,1017.74
2018-01-29T05:14:39.270Z,1017.81
2018-01-29T05:15:39.309Z,1017.78
2018-01-29T05:16:39.317Z,1017.77
2018-01-29T05:17:39.347Z,1017.71
2018-01-29T05:18:39.363Z,1017.82
2018-01-29T05:19:39.387Z,1017.78
2018-01-29T05:20:39.416Z,1017.76
2018-01-29T05:21:39.451Z,1017.68
2018-01-29T05:22:39.464Z,1017.73
2018-01-29T05:23:39.502Z,1017.80
2018-01-29T05:24:39.559Z,1017.71
2018-01-29T05:25:39.538Z,1017.73
2018-01-29T05:26:39.565Z,1017.71
2018-01-29T05:27:39.595Z,1017.70
2018-01-29T05:28:39.616Z,1017.72
2018-01-29T05:29:39.647Z,1017.66
2018-01-29T05:30:39.671Z,1017.60
2018-01-29T05:31:39.683Z,1017.67
2018-01-29T05:32:39.717Z,1017.68
2018-01-29T05:33:39.741Z,1017.72
2018-01-29T05:34:39.763Z,1017.69
2018-01-29T05:35:39.792Z,1017.68
2018-01-29T05:36:39.815Z,1017.67
2018-01-29T05:37:39.834Z,1017.75
2018-01-29T05:38:39.863Z,1017.75
2018-01-29T05:39:39.886Z,1017.76
2018-01-29T05:40:39.911Z,1017.78
2018-01-29T05:41:39.943Z,1017.74
2018-01-29T05:42:39.961Z,1017.76
2018-01-29T05:43:39.992Z,1017.83
2018-01-29T05:44:40.008Z,1017.78
2018-01-29T05:45:40.051Z,1017.83
2018-01-29T05:46:40.059Z,1017.84
2018-01-29T05:47:40.087Z,1017.82
2018-01-29T05:48:40.112Z,1017.83
2018-01-29T05:49:40.134Z,1017.88
2018-01-29T05:50:40.162Z,1017.85
2018-01-29T05:51:40.180Z,1017.87
2018-01-29T05:52:40.213Z,1017.83
2018-01-29T05:53:40.233Z,1017.92
2018-01-29T05:54:40.282Z,1017.80
2018-01-29T05:55:40.277Z,1017.84
2018-01-29T05:56:40.314Z,1017.83
2018-01-29T05:57:40.366Z,1017.85
2018-01-29T05:58:40.394Z,1017.81
2018-01-29T05:59:40.387Z,1017.82
2018-01-29T06:00:40.414Z,1017.81
2018-01-29T06:01:40.577Z,1017.78
2018-01-29T06:02:40.457Z,1017.76
2018-01-29T06:03:40.632Z,1017.83
2018-01-29T06:04:40.503Z,1017.82
2018-01-29T06:05:41.487Z,1017.78
2018-01-29T06:06:40.552Z,1017.74
2018-01-29T06:07:40.571Z,1017.78
2018-01-29T06:08:40.609Z,1017.78
2018-01-29T06:09:40.624Z,1017.73
2018-01-29T06:10:40.650Z,1017.79
2018-01-29T06:11:40.680Z,1017.73
2018-01-29T06:12:40.701Z,1017.74
2018-01-29T06:13:40.724Z,1017.73
2018-01-29T06:14:40.800Z,1017.74
2018-01-29T06:15:40.774Z,1017.73
2018-01-29T06:16:40.807Z,1017.75
2018-01-29T06:17:40.825Z,1017.75
2018-01-29T06:18:40.853Z,1017.72
2018-01-29T06:19:40.879Z,1017.75
2018-01-29T06:20:40.917Z,1017.68
2018-01-29T06:21:40.918Z,1017.65
2018-01-29T06:22:40.969Z,1017.71
2018-01-29T06:23:40.972Z,1017.70
2018-01-29T06:24:40.998Z,1017.67
2018-01-29T06:25:41.017Z,1017.64
2018-01-29T06:26:41.054Z,1017.63
2018-01-29T06:27:41.067Z,1017.69
2018-01-29T06:28:41.101Z,1017.64
2018-01-29T06:29:41.124Z,1017.56
2018-01-29T06:30:41.147Z,1017.62
2018-01-29T06:31:41.169Z,1017.49
2018-01-29T06:32:41.188Z,1017.51
2018-01-29T06:33:41.252Z,1017.51
2018-01-29T06:34:41.244Z,1017.49
2018-01-29T06:35:41.259Z,1017.49
2018-01-29T06:36:41.288Z,1017.52
2018-01-29T06:37:41.326Z,1017.47
2018-01-29T06:38:41.340Z,1017.39
2018-01-29T06:39:41.364Z,1017.46
2018-01-29T06:40:41.388Z,1017.45
2018-01-29T06:41:41.426Z,1017.52
2018-01-29T06:42:41.446Z,1017.50
2018-01-29T06:43:41.465Z,1017.40
2018-01-29T06:44:41.485Z,1017.40
2018-01-29T06:45:41.510Z,1017.40
2018-01-29T06:46:41.553Z,1017.39
2018-01-29T06:47:41.559Z,1017.43
2018-01-29T06:48:41.584Z,1017.44
2018-01-29T06:49:41.615Z,1017.52
2018-01-29T06:50:41.636Z,1017.55
2018-01-29T06:51:41.671Z,1017.54
2018-01-29T06:52:41.686Z,1017.47
2018-01-29T06:53:41.709Z,1017.52
2018-01-29T06:54:41.732Z,1017.48
2018-01-29T06:55:41.757Z,1017.59
2018-01-29T06:56:41.784Z,1017.56
2018-01-29T06:57:41.819Z,1017.52
2018-01-29T06:58:41.833Z,1017.49
2018-01-29T06:59:41.863Z,1017.43
2018-01-29T07:00:41.901Z,1017.50
2018-01-29T07:01:41.908Z,1017.52
2018-01-29T07:02:41.937Z,1017.53
2018-01-29T07:03:41.957Z,1017.48
2018-01-29T07:04:41.979Z,1017.48
2018-01-29T07:05:42.009Z,1017.46
2018-01-29T07:06:42.037Z,1017.52
2018-01-29T07:07:42.062Z,1017.44
2018-01-29T07:08:42.082Z,1017.43
2018-01-29T07:09:42.107Z,1017.44
2018-01-29T07:10:42.125Z,1017.48
2018-01-29T07:11:42.220Z,1017.44
2018-01-29T07:12:42.195Z,1017.47
2018-01-29T07:13:42.204Z,1017.41
2018-01-29T07:14:42.227Z,1017.27
2018-01-29T07:15:42.265Z,1017.27
2018-01-29T07:16:42.278Z,1017.38
2018-01-29T07:17:42.300Z,1017.29
2018-01-29T07:18:42.339Z,1017.27
2018-01-29T07:19:42.348Z,1017.26
2018-01-29T07:20:42.375Z,1017.24
2018-01-29T07:21:42.406Z,1017.22
2018-01-29T07:22:42.439Z,1017.23
2018-01-29T07:23:42.446Z,1017.15
2018-01-29T07:24:42.482Z,1017.29
2018-01-29T07:25:42.495Z,1017.17
2018-01-29T07:26:42.530Z,1017.24
2018-01-29T07:27:42.550Z,1017.23
2018-01-29T07:28:42.582Z,1017.15
2018-01-29T07:29:42.643Z,1017.21
2018-01-29T07:30:42.624Z,1017.16
2018-01-29T07:31:42.643Z,1017.15
2018-01-29T07:32:42.675Z,1017.19
2018-01-29T07:33:42.704Z,1017.10
2018-01-29T07:34:42.727Z,1017.16
2018-01-29T07:35:42.758Z,1017.18
2018-01-29T07:36:42.771Z,1017.05
2018-01-29T07:37:42.801Z,1017.08
2018-01-29T07:38:42.823Z,1017.09
2018-01-29T07:39:42.847Z,1017.03
2018-01-29T07:40:42.873Z,1016.96
2018-01-29T07:41:42.905Z,1016.99
2018-01-29T07:42:42.928Z,1016.99
2018-01-29T07:43:42.953Z,1016.98
2018-01-29T07:44:42.977Z,1016.84
2018-01-29T07:45:43.003Z,1016.87
2018-01-29T07:46:43.018Z,1016.96
2018-01-29T07:47:43.061Z,1016.90
2018-01-29T07:48:43.065Z,1016.93
2018-01-29T07:49:43.093Z,1016.93
2018-01-29T07:50:43.119Z,1016.92
2018-01-29T07:51:43.141Z,1016.79
2018-01-29T07:52:43.168Z,1016.83
2018-01-29T07:53:43.192Z,1016.87
2018-01-29T07:54:43.220Z,1016.80
2018-01-29T07:55:43.241Z,1016.83
2018-01-29T07:56:43.267Z,1016.76
2018-01-29T07:57:43.289Z,1016.82
2018-01-29T07:58:43.316Z,1016.87
2018-01-29T07:59:43.341Z,1016.80
2018-01-29T08:00:43.373Z,1016.86
2018-01-29T08:01:43.397Z,1016.77
2018-01-29T08:02:43.420Z,1016.87
2018-01-29T08:03:43.444Z,1016.85
2018-01-29T08:04:43.476Z,1016.78
2018-01-29T08:05:43.491Z,1016.84
2018-01-29T08:06:43.520Z,1016.85
2018-01-29T08:07:43.542Z,1016.77
2018-01-29T08:08:43.564Z,1016.79
2018-01-29T08:09:43.592Z,1016.78
2018-01-29T08:10:43.627Z,1016.75
2018-01-29T08:11:43.650Z,1016.70
2018-01-29T08:12:43.669Z,1016.65
2018-01-29T08:13:43.697Z,1016.71
2018-01-29T08:14:43.713Z,1016.69
2018-01-29T08:15:43.737Z,1016.70
2018-01-29T08:16:43.770Z,1016.62
2018-01-29T08:17:43.788Z,1016.64
2018-01-29T08:18:43.814Z,1016.54
2018-01-29T08:19:43.848Z,1016.62
2018-01-29T08:20:43.862Z,1016.55
2018-01-29T08:21:43.889Z,1016.56
2018-01-29T08:22:43.909Z,1016.56
2018-01-29T08:23:43.940Z,1016.61
2018-01-29T08:24:43.962Z,1016.59
2018-01-29T08:25:44.000Z,1016.55
2018-01-29T08:26:44.011Z,1016.56
2018-01-29T08:27:44.046Z,1016.54
2018-01-29T08:28:44.133Z,1016.59
2018-01-29T08:29:44.134Z,1016.50
2018-01-29T08:30:44.121Z,1016.52
2018-01-29T08:31:44.141Z,1016.51
2018-01-29T08:32:44.178Z,1016.53
2018-01-29T08:33:44.194Z,1016.54
2018-01-29T08:34:44.212Z,1016.52
2018-01-29T08:35:44.291Z,1016.47
2018-01-29T08:36:44.260Z,1016.52
2018-01-29T08:37:44.283Z,1016.52
2018-01-29T08:38:44.311Z,1016.39
2018-01-29T08:39:45.013Z,1016.44
2018-01-29T08:40:44.371Z,1016.45
2018-01-29T08:41:44.386Z,1016.36
2018-01-29T08:42:44.418Z,1016.38
2018-01-29T08:43:44.442Z,1016.45
2018-01-29T08:44:44.469Z,1016.42
2018-01-29T08:45:44.488Z,1016.39
2018-01-29T08:46:44.513Z,1016.40
2018-01-29T08:47:44.533Z,1016.44
2018-01-29T08:48:44.559Z,1016.43
2018-01-29T08:49:44.586Z,1016.44
2018-01-29T08:50:44.613Z,1016.43
2018-01-29T08:51:44.635Z,1016.38
2018-01-29T08:52:44.664Z,1016.32
2018-01-29T08:53:44.689Z,1016.34
2018-01-29T08:54:44.719Z,1016.35
2018-01-29T08:55:44.740Z,1016.29
2018-01-29T08:56:44.760Z,1016.31
2018-01-29T08:57:44.782Z,1016.28
2018-01-29T08:58:44.808Z,1016.31
2018-01-29T08:59:44.834Z,1016.25
2018-01-29T09:00:44.866Z,1016.23
2018-01-29T09:01:44.891Z,1016.20
2018-01-29T09:02:44.909Z,1016.20
2018-01-29T09:03:44.936Z,1016.28
2018-01-29T09:04:44.954Z,1016.20
2018-01-29T09:05:44.987Z,1016.18
2018-01-29T09:06:45.007Z,1016.01
2018-01-29T09:07:45.041Z,1016.11
2018-01-29T09:08:45.064Z,1016.02
2018-01-29T09:09:45.086Z,1016.03
2018-01-29T09:10:45.113Z,1016.02
2018-01-29T09:11:45.134Z,1016.06
2018-01-29T09:12:45.153Z,1015.97
2018-01-29T09:13:45.189Z,1016.01
2018-01-29T09:14:45.216Z,1016.06
2018-01-29T09:15:45.239Z,1015.99
2018-01-29T09:16:45.263Z,1016.01
2018-01-29T09:17:45.283Z,1015.99
2018-01-29T09:18:45.315Z,1016.01
2018-01-29T09:19:45.339Z,1016.06
2018-01-29T09:20:45.358Z,1016.01
2018-01-29T09:21:45.382Z,1016.08
2018-01-29T09:22:45.408Z,1016.03
2018-01-29T09:23:45.428Z,1016.03
2018-01-29T09:24:45.459Z,1015.99
2018-01-29T09:25:45.529Z,1015.99
2018-01-29T09:26:45.507Z,1016.06
2018-01-29T09:27:45.532Z,1016.02
2018-01-29T09:28:45.566Z,1015.98
2018-01-29T09:29:45.583Z,1016.03
2018-01-29T09:30:45.611Z,1016.01
2018-01-29T09:31:45.636Z,1015.98
2018-01-29T09:32:45.662Z,1016.01
2018-01-29T09:33:45.679Z,1015.92
2018-01-29T09:34:45.710Z,1016.00
2018-01-29T09:35:45.734Z,1016.01
2018-01-29T09:36:45.766Z,1015.94
2018-01-29T09:37:45.782Z,1015.91
2018-01-29T09:38:45.807Z,1015.88
2018-01-29T09:39:45.842Z,1015.90
2018-01-29T09:40:45.854Z,1015.93
2018-01-29T09:41:45.888Z,1015.95
2018-01-29T09:42:45.907Z,1015.95
2018-01-29T09:43:45.942Z,1015.93
2018-01-29T09:44:45.957Z,1015.94
2018-01-29T09:45:45.982Z,1015.98
2018-01-29T09:46:46.005Z,1015.90
2018-01-29T09:47:46.051Z,1015.97
2018-01-29T09:48:46.054Z,1015.98
2018-01-29T09:49:46.087Z,1016.06
2018-01-29T09:50:46.111Z,1016.06
2018-01-29T09:51:46.132Z,1016.03
2018-01-29T09:52:46.155Z,1016.00
2018-01-29T09:53:46.183Z,1016.04
2018-01-29T09:54:46.208Z,1016.06
2018-01-29T09:55:46.240Z,1016.06
2018-01-29T09:56:46.259Z,1016.08
2018-01-29T09:57:46.277Z,1016.08
2018-01-29T09:58:46.410Z,1016.06
2018-01-29T09:59:46.329Z,1016.06
2018-01-29T10:00:46.357Z,1016.00
2018-01-29T10:01:46.379Z,1016.07
2018-01-29T10:02:46.412Z,1016.12
2018-01-29T10:03:46.437Z,1016.09
2018-01-29T10:04:46.451Z,1016.08
2018-01-29T10:05:46.480Z,1016.13
2018-01-29T10:06:46.503Z,1016.16
2018-01-29T10:07:46.526Z,1016.12
2018-01-29T10:08:46.603Z,1016.11
2018-01-29T10:09:46.691Z,1016.11
2018-01-29T10:10:46.611Z,1016.06
2018-01-29T10:11:46.637Z,1016.05
2018-01-29T10:12:46.661Z,1016.20
2018-01-29T10:13:46.677Z,1016.10
2018-01-29T10:14:46.701Z,1016.08
2018-01-29T10:15:46.734Z,1015.95
2018-01-29T10:16:46.768Z,1015.99
2018-01-29T10:17:46.784Z,1016.05
2018-01-29T10:18:46.862Z,1015.99
2018-01-29T10:19:46.833Z,1016.03
2018-01-29T10:20:46.925Z,1015.98
2018-01-29T10:21:46.880Z,1015.85
2018-01-29T10:22:46.935Z,1015.96
2018-01-29T10:23:46.930Z,1016.05
2018-01-29T10:24:46.951Z,1015.96
2018-01-29T10:25:46.986Z,1015.87
2018-01-29T10:26:47.009Z,1015.90
2018-01-29T10:27:47.028Z,1015.92
2018-01-29T10:28:47.054Z,1015.80
2018-01-29T10:29:47.082Z,1015.87
2018-01-29T10:30:47.104Z,1015.83
2018-01-29T10:31:47.134Z,1015.97
2018-01-29T10:32:47.156Z,1015.83
2018-01-29T10:33:47.189Z,1015.86
2018-01-29T10:34:47.214Z,1015.89
2018-01-29T10:35:47.225Z,1015.88
2018-01-29T10:36:47.264Z,1015.83
2018-01-29T10:37:47.281Z,1015.87
2018-01-29T10:38:47.302Z,1015.84
2018-01-29T10:39:47.330Z,1015.87
2018-01-29T10:40:47.391Z,1015.83
2018-01-29T10:41:47.378Z,1015.81
2018-01-29T10:42:47.403Z,1015.86
2018-01-29T10:43:47.430Z,1015.84
2018-01-29T10:44:47.452Z,1015.82
2018-01-29T10:45:47.481Z,1015.72
2018-01-29T10:46:47.504Z,1015.75
2018-01-29T10:47:47.529Z,1015.68
2018-01-29T10:48:47.566Z,1015.78
2018-01-29T10:49:47.580Z,1015.78
2018-01-29T10:50:47.610Z,1015.77
2018-01-29T10:51:47.629Z,1015.72
2018-01-29T10:52:47.656Z,1015.73
2018-01-29T10:53:47.683Z,1015.68
2018-01-29T10:54:47.708Z,1015.72
2018-01-29T10:55:47.727Z,1015.63
2018-01-29T10:56:47.757Z,1015.67
2018-01-29T10:57:47.787Z,1015.62
2018-01-29T10:58:47.807Z,1015.58
2018-01-29T10:59:47.833Z,1015.53
2018-01-29T11:00:47.859Z,1015.59
2018-01-29T11:01:47.897Z,1015.58
2018-01-29T11:02:47.904Z,1015.57
2018-01-29T11:03:47.932Z,1015.57
2018-01-29T11:04:47.964Z,1015.55
2018-01-29T11:05:47.986Z,1015.49
2018-01-29T11:06:48.007Z,1015.52
2018-01-29T11:07:48.051Z,1015.54
2018-01-29T11:08:48.060Z,1015.50
2018-01-29T11:09:48.083Z,1015.49
2018-01-29T11:10:48.108Z,1015.47
2018-01-29T11:11:48.133Z,1015.44
2018-01-29T11:12:48.177Z,1015.49
2018-01-29T11:13:48.186Z,1015.44
2018-01-29T11:14:48.224Z,1015.46
2018-01-29T11:15:48.315Z,1015.45
2018-01-29T11:16:48.256Z,1015.50
2018-01-29T11:17:48.288Z,1015.52
2018-01-29T11:18:48.319Z,1015.56
2018-01-29T11:19:48.343Z,1015.59
2018-01-29T11:20:48.364Z,1015.55
2018-01-29T11:21:48.382Z,1015.50
2018-01-29T11:22:48.422Z,1015.51
2018-01-29T11:23:48.431Z,1015.53
2018-01-29T11:24:48.468Z,1015.56
2018-01-29T11:25:48.483Z,1015.56
2018-01-29T11:26:48.525Z,1015.58
2018-01-29T11:27:48.531Z,1015.60
2018-01-29T11:28:48.562Z,1015.43
2018-01-29T11:29:48.586Z,1015.53
2018-01-29T11:30:48.612Z,1015.38
2018-01-29T11:31:48.636Z,1015.43
2018-01-29T11:32:48.663Z,1015.43
2018-01-29T11:33:48.686Z,1015.36
2018-01-29T11:34:48.711Z,1015.36
2018-01-29T11:35:48.730Z,1015.44
2018-01-29T11:36:48.757Z,1015.39
2018-01-29T11:37:48.902Z,1015.47
2018-01-29T11:38:48.815Z,1015.32
2018-01-29T11:39:48.848Z,1015.28
2018-01-29T11:40:48.864Z,1015.42
2018-01-29T11:41:48.882Z,1015.33
2018-01-29T11:42:48.913Z,1015.38
2018-01-29T11:43:48.935Z,1015.28
2018-01-29T11:44:48.962Z,1015.25
2018-01-29T11:45:48.994Z,1015.05
2018-01-29T11:46:49.013Z,1015.17
2018-01-29T11:47:49.039Z,1015.19
2018-01-29T11:48:49.059Z,1015.16
2018-01-29T11:49:49.096Z,1015.12
2018-01-29T11:50:49.109Z,1015.11
2018-01-29T11:51:49.135Z,1015.11
2018-01-29T11:52:49.161Z,1015.09
2018-01-29T11:53:49.186Z,1015.06
2018-01-29T11:54:49.215Z,1015.07
2018-01-29T11:55:49.238Z,1015.14
2018-01-29T11:56:49.260Z,1015.06
2018-01-29T11:57:49.318Z,1014.97
2018-01-29T11:58:49.316Z,1015.04
2018-01-29T11:59:49.345Z,1014.97
2018-01-29T12:00:49.365Z,1014.95
2018-01-29T12:01:49.382Z,1014.91
2018-01-29T12:02:49.413Z,1014.89
2018-01-29T12:03:49.443Z,1014.90
2018-01-29T12:04:49.468Z,1014.93
2018-01-29T12:05:49.490Z,1014.93